createdAt,value
2024-01-20T00:00:46.061Z,-2.95
2024-01-20T00:03:13.185Z,-2.96
2024-01-20T00:05:40.572Z,-2.95
2024-01-20T00:08:07.972Z,-2.94
2024-01-20T00:10:35.350Z,-2.95
2024-01-20T00:13:04.386Z,-2.97
2024-01-20T00:15:31.653Z,-2.98
2024-01-20T00:17:58.893Z,-2.98
2024-01-20T00:20:26.339Z,-2.99
2024-01-20T00:22:53.818Z,-2.98
2024-01-20T00:25:22.348Z,-2.98
2024-01-20T00:27:52.299Z,-2.99
2024-01-20T00:30:22.555Z,-2.99
2024-01-20T00:32:50.219Z,-3.00
2024-01-20T00:35:17.631Z,-3.00
2024-01-20T00:37:44.895Z,-2.99
2024-01-20T00:40:12.758Z,-2.95
2024-01-20T00:42:39.986Z,-2.94
2024-01-20T00:45:08.149Z,-2.92
2024-01-20T00:47:37.769Z,-2.92
2024-01-20T00:50:07.443Z,-2.92
2024-01-20T00:52:34.646Z,-2.93
2024-01-20T00:55:01.884Z,-2.91
2024-01-20T00:57:29.012Z,-2.89
2024-01-20T00:59:57.528Z,-2.87
2024-01-20T01:02:26.861Z,-2.87
2024-01-20T01:04:57.226Z,-2.88
2024-01-20T01:07:24.471Z,-2.89
2024-01-20T01:09:52.216Z,-2.91
2024-01-20T01:12:19.598Z,-2.92
2024-01-20T01:14:46.724Z,-2.95
2024-01-20T01:17:13.936Z,-2.99
2024-01-20T01:19:41.379Z,-2.99
2024-01-20T01:22:09.021Z,-3.00
2024-01-20T01:24:36.257Z,-2.99
2024-01-20T01:27:03.389Z,-2.99
2024-01-20T01:29:32.914Z,-3.00
2024-01-20T01:32:00.433Z,-2.99
2024-01-20T01:34:27.708Z,-2.97
2024-01-20T01:36:55.108Z,-2.96
2024-01-20T01:39:22.806Z,-2.95
2024-01-20T01:41:50.382Z,-2.94
2024-01-20T01:44:17.612Z,-2.95
2024-01-20T01:46:45.368Z,-2.95
2024-01-20T01:49:12.790Z,-2.98
2024-01-20T01:51:40.450Z,-2.99
2024-01-20T01:54:10.244Z,-3.02
2024-01-20T01:56:37.839Z,-3.03
2024-01-20T01:59:05.109Z,-3.09
2024-01-20T02:04:20.779Z,-3.20
2024-01-20T02:06:58.474Z,-3.24
2024-01-20T02:09:36.577Z,-3.29
2024-01-20T02:12:11.561Z,-3.35
2024-01-20T02:14:44.141Z,-3.39
2024-01-20T02:17:14.510Z,-3.42
2024-01-20T02:19:42.649Z,-3.46
2024-01-20T02:22:20.899Z,-3.52
2024-01-20T02:24:50.380Z,-3.60
2024-01-20T02:27:37.623Z,-3.68
2024-01-20T02:30:08.269Z,-3.77
2024-01-20T02:32:36.005Z,-3.83
2024-01-20T02:35:04.923Z,-3.88
2024-01-20T02:37:33.239Z,-3.90
2024-01-20T02:40:20.478Z,-3.92
2024-01-20T02:42:56.700Z,-3.94
2024-01-20T02:45:25.003Z,-3.97
2024-01-20T02:47:56.209Z,-4.05
2024-01-20T02:50:26.228Z,-4.07
2024-01-20T02:52:56.032Z,-4.06
2024-01-20T02:58:24.333Z,-4.21
2024-01-20T03:00:56.299Z,-4.33
2024-01-20T03:03:26.415Z,-4.44
2024-01-20T03:06:35.614Z,-4.53
2024-01-20T03:09:07.318Z,-4.58
2024-01-20T03:11:39.528Z,-4.61
2024-01-20T03:14:27.253Z,-4.64
2024-01-20T03:17:17.291Z,-4.70
2024-01-20T03:20:05.650Z,-4.74
2024-01-20T03:22:44.474Z,-4.80
2024-01-20T03:25:32.644Z,-4.88
2024-01-20T03:28:03.419Z,-4.93
2024-01-20T03:30:36.818Z,-4.94
2024-01-20T03:33:04.889Z,-5.05
2024-01-20T03:35:37.037Z,-5.18
2024-01-20T03:38:05.531Z,-5.21
2024-01-20T03:40:58.686Z,-5.26
2024-01-20T03:43:48.135Z,-5.38
2024-01-20T03:46:47.698Z,-5.42
2024-01-20T03:49:41.189Z,-5.47
2024-01-20T03:52:18.418Z,-5.48
2024-01-20T03:55:25.490Z,-5.53
2024-01-20T03:57:57.393Z,-5.63
2024-01-20T04:00:27.633Z,-5.68
2024-01-20T04:03:36.303Z,-5.75
2024-01-20T04:06:57.099Z,-5.80
2024-01-20T04:10:09.781Z,-5.86
2024-01-20T04:13:05.339Z,-5.91
2024-01-20T04:16:15.086Z,-5.98
2024-01-20T04:18:44.789Z,-5.97
2024-01-20T04:21:38.499Z,-5.93
2024-01-20T04:24:52.506Z,-5.93
2024-01-20T04:28:00.402Z,-5.95
2024-01-20T04:30:55.708Z,-5.96
2024-01-20T04:34:14.406Z,-5.94
2024-01-20T04:37:31.191Z,-5.92
2024-01-20T04:40:38.357Z,-5.91
2024-01-20T04:43:57.623Z,-5.92
2024-01-20T04:47:08.837Z,-5.92
2024-01-20T04:50:19.781Z,-5.93
2024-01-20T04:53:36.151Z,-5.93
2024-01-20T04:57:05.958Z,-5.97
2024-01-20T05:00:22.685Z,-5.97
2024-01-20T05:03:49.879Z,-5.96
2024-01-20T05:07:16.876Z,-5.93
2024-01-20T05:10:46.169Z,-5.99
2024-01-20T05:14:13.002Z,-6.02
2024-01-20T05:17:41.195Z,-6.07
2024-01-20T05:21:28.459Z,-6.05
2024-01-20T05:25:15.325Z,-5.99
2024-01-20T05:28:45.661Z,-5.91
2024-01-20T05:32:12.609Z,-5.85
2024-01-20T05:35:39.398Z,-5.77
2024-01-20T05:39:26.294Z,-5.68
2024-01-20T05:43:12.952Z,-5.66
2024-01-20T05:46:59.966Z,-5.66
2024-01-20T05:50:27.646Z,-5.59
2024-01-20T05:53:54.993Z,-5.59
2024-01-20T05:57:28.842Z,-5.56
2024-01-20T06:01:16.305Z,-5.48
2024-01-20T06:04:27.685Z,-5.40
2024-01-20T06:07:54.626Z,-5.32
2024-01-20T06:11:41.486Z,-5.24
2024-01-20T06:15:28.363Z,-5.17
2024-01-20T06:19:00.121Z,-5.10
2024-01-20T06:22:46.791Z,-5.02
2024-01-20T06:25:57.942Z,-4.98
2024-01-20T06:29:25.006Z,-4.94
2024-01-20T06:33:11.947Z,-4.88
2024-01-20T06:36:39.338Z,-4.85
2024-01-20T06:40:06.970Z,-4.78
2024-01-20T06:43:34.530Z,-4.73
2024-01-20T06:46:41.707Z,-4.69
2024-01-20T06:50:28.633Z,-4.67
2024-01-20T06:54:13.114Z,-4.62
2024-01-20T06:58:00.896Z,-4.57
2024-01-20T07:01:47.990Z,-4.53
2024-01-20T07:05:15.393Z,-4.50
2024-01-20T07:09:02.229Z,-4.44
2024-01-20T07:12:49.096Z,-4.39
2024-01-20T07:16:35.958Z,-4.32
2024-01-20T07:20:22.687Z,-4.28
2024-01-20T07:24:09.543Z,-4.21
2024-01-20T07:27:56.666Z,-4.14
2024-01-20T07:31:39.176Z,-4.07
2024-01-20T07:35:26.263Z,-4.00
2024-01-20T07:39:13.150Z,-3.95
2024-01-20T07:42:45.482Z,-3.90
2024-01-20T07:46:35.241Z,-3.84
2024-01-20T07:50:11.879Z,-3.75
2024-01-20T07:53:58.769Z,-3.68
2024-01-20T07:57:26.171Z,-3.60
2024-01-20T08:01:13.459Z,-3.52
2024-01-20T08:05:00.253Z,-3.44
2024-01-20T08:08:40.386Z,-3.38
2024-01-20T08:12:21.652Z,-3.27
2024-01-20T08:15:49.281Z,-3.20
2024-01-20T08:19:36.476Z,-3.12
2024-01-20T08:23:23.376Z,-3.09
2024-01-20T08:26:58.726Z,-3.02
2024-01-20T08:30:27.120Z,-2.93
2024-01-20T08:34:14.352Z,-2.85
2024-01-20T08:37:41.966Z,-2.84
2024-01-20T08:41:13.116Z,-2.84
2024-01-20T08:44:59.990Z,-2.82
2024-01-20T09:07:03.975Z,-2.49
2024-01-20T09:10:31.927Z,-2.45
2024-01-20T09:14:19.388Z,-2.40
2024-01-20T09:18:06.816Z,-2.30
2024-01-20T09:21:57.346Z,-2.24
2024-01-20T09:25:44.464Z,-2.15
2024-01-20T09:29:33.848Z,-2.11
2024-01-20T09:33:01.871Z,-2.10
2024-01-20T09:36:51.126Z,-2.08
2024-01-20T09:40:44.554Z,-2.02
2024-01-20T10:02:58.544Z,-1.45
2024-01-20T10:05:32.484Z,-1.42
2024-01-20T10:07:59.740Z,-1.40
2024-01-20T10:10:26.959Z,-1.39
2024-01-20T10:13:02.576Z,-1.37
2024-01-20T10:15:34.475Z,-1.40
2024-01-20T10:18:10.393Z,-1.41
2024-01-20T10:20:38.773Z,-1.37
2024-01-20T10:23:07.702Z,-1.35
2024-01-20T10:25:34.998Z,-1.32
2024-01-20T10:28:02.160Z,-1.29
2024-01-20T10:30:30.571Z,-1.29
2024-01-20T10:33:08.899Z,-1.30
2024-01-20T10:35:38.206Z,-1.29
2024-01-20T10:38:12.488Z,-1.22
2024-01-20T10:40:43.470Z,-1.14
2024-01-20T10:43:17.661Z,-1.09
2024-01-20T10:46:00.041Z,-1.05
2024-01-20T11:16:19.767Z,-0.73
2024-01-20T21:09:15.366Z,-2.29
2024-01-20T21:13:04.317Z,-2.31
2024-01-20T21:16:51.773Z,-2.33
2024-01-20T21:20:41.973Z,-2.33
2024-01-20T21:24:29.153Z,-2.34
2024-01-20T21:28:17.863Z,-2.36
2024-01-20T21:32:07.543Z,-2.38
2024-01-20T21:35:53.341Z,-2.41
2024-01-20T21:39:40.616Z,-2.40
2024-01-20T21:43:29.048Z,-2.40
2024-01-20T21:47:20.120Z,-2.45
2024-01-20T21:50:45.117Z,-2.48
2024-01-20T21:53:12.186Z,-2.51
2024-01-20T21:55:38.934Z,-2.52
2024-01-20T21:58:05.471Z,-2.51
2024-01-20T22:00:32.074Z,-2.50
2024-01-20T22:02:58.714Z,-2.54
2024-01-20T22:05:25.501Z,-2.55
2024-01-20T22:07:54.563Z,-2.55
2024-01-20T22:10:20.969Z,-2.55
2024-01-20T22:12:47.791Z,-2.56
2024-01-20T22:15:14.609Z,-2.60
2024-01-20T22:17:41.482Z,-2.62
2024-01-20T22:20:09.310Z,-2.59
2024-01-20T22:22:35.980Z,-2.63
2024-01-20T22:25:02.489Z,-2.68
2024-01-20T22:27:29.016Z,-2.70
2024-01-20T22:29:55.689Z,-2.67
2024-01-20T22:32:22.176Z,-2.67
2024-01-20T22:34:48.824Z,-2.68
2024-01-20T22:37:15.383Z,-2.69
2024-01-20T22:39:41.935Z,-2.69
2024-01-20T22:42:08.425Z,-2.69
2024-01-20T22:44:35.184Z,-2.70
2024-01-20T22:47:01.979Z,-2.69
2024-01-20T22:49:30.652Z,-2.67
2024-01-20T22:51:57.302Z,-2.66
2024-01-20T22:54:26.320Z,-2.65
2024-01-20T22:56:52.869Z,-2.65
2024-01-20T22:59:19.495Z,-2.65
2024-01-20T23:01:45.997Z,-2.62
2024-01-20T23:04:16.882Z,-2.62
2024-01-20T23:06:46.213Z,-2.61
2024-01-20T23:09:12.746Z,-2.59
2024-01-20T23:11:39.748Z,-2.57
2024-01-20T23:14:06.253Z,-2.56
2024-01-20T23:16:32.786Z,-2.57
2024-01-20T23:18:59.750Z,-2.57
2024-01-20T23:21:26.484Z,-2.56
2024-01-20T23:23:53.150Z,-2.55
2024-01-20T23:26:19.597Z,-2.55
2024-01-20T23:28:46.127Z,-2.56
2024-01-20T23:31:12.654Z,-2.55
2024-01-20T23:33:39.676Z,-2.54
2024-01-20T23:36:06.866Z,-2.55
2024-01-20T23:38:33.427Z,-2.57
2024-01-20T23:41:00.073Z,-2.58
2024-01-20T23:43:27.185Z,-2.60
2024-01-20T23:45:53.851Z,-2.61
2024-01-20T23:48:20.420Z,-2.60
2024-01-20T23:50:47.284Z,-2.60
2024-01-20T23:53:13.822Z,-2.56
2024-01-20T23:55:40.328Z,-2.54
2024-01-20T23:58:06.777Z,-2.55
